Time;durP1;ratioP1;P1;durP2;ratioP2;P2;SDS_P1;SDS_P2;PMS_P1;PMS_P2;Temp;Humidity;BMP_temperature;BMP_pressure;BME280_temperature;BME280_humidity;BME280_pressure;Samples;Min_cycle;Max_cycle;Signal;HPM_P1;HPM_P2
2021/09/30 00:01:49;;;;;;;5.72;0.77;;;;;;;;;;5041630;28;20051;-84
2021/09/30 00:04:16;;;;;;;2.53;0.60;;;;;;;;;;5009118;28;20057;-83
2021/09/30 00:06:43;;;;;;;2.08;0.75;;;;;;;;;;5042357;28;20041;-85
2021/09/30 00:09:10;;;;;;;1.10;0.65;;;;;;;;;;5042898;28;20640;-83
2021/09/30 00:11:42;;;;;;;1.30;0.47;;;;;;;;;;5007438;28;20568;-84
2021/09/30 00:14:13;;;;;;;2.70;0.82;;;;;;;;;;5007092;28;20049;-85
2021/09/30 00:16:57;;;;;;;3.05;0.50;;;;;;;;;;5021865;28;20048;-84
2021/09/30 00:33:20;;;;;;;2.78;0.82;;;;;;;;;;5043873;28;20609;-83
2021/09/30 00:35:56;;;;;;;1.50;0.70;;;;;;;;;;5006802;28;20053;-85
2021/09/30 00:46:51;;;;;;;2.90;0.63;;;;;;;;;;5026252;28;20060;-84
2021/09/30 00:49:27;;;;;;;2.70;0.85;;;;;;;;;;5040270;28;20072;-84
2021/09/30 00:51:58;;;;;;;3.50;0.88;;;;;;;;;;5021946;28;20054;-84
2021/09/30 00:54:52;;;;;;;1.23;0.50;;;;;;;;;;5038837;28;20046;-84
2021/09/30 01:46:11;;;;;;;2.22;0.70;;;;;;;;;;5037506;28;20064;-84
2021/09/30 02:27:36;;;;;;;1.33;0.80;;;;;;;;;;5004892;28;20109;-83
2021/09/30 03:00:45;;;;;;;2.67;1.65;;;;;;;;;;4999137;28;20104;-84
2021/09/30 03:03:13;;;;;;;4.00;0.70;;;;;;;;;;5042811;28;20464;-84
2021/09/30 03:05:41;;;;;;;3.88;1.00;;;;;;;;;;5045969;28;20413;-85
2021/09/30 03:08:08;;;;;;;2.97;0.73;;;;;;;;;;5023358;28;20048;-83
2021/09/30 03:10:35;;;;;;;1.30;0.60;;;;;;;;;;5044158;28;20045;-84
2021/09/30 03:13:02;;;;;;;2.90;0.98;;;;;;;;;;5041658;28;20049;-84
2021/09/30 03:15:38;;;;;;;2.13;1.00;;;;;;;;;;5042140;28;20058;-83
2021/09/30 03:18:24;;;;;;;1.80;0.90;;;;;;;;;;5028483;28;20412;-83
2021/09/30 03:21:59;;;;;;;1.75;1.00;;;;;;;;;;5042612;28;20056;-83
2021/09/30 03:23:40;;;;;;;1.83;0.93;;;;;;;;;;5036716;28;20045;-84
2021/09/30 03:26:07;;;;;;;0.90;0.63;;;;;;;;;;5039621;28;20516;-83
2021/09/30 03:28:34;;;;;;;0.60;0.40;;;;;;;;;;5041480;28;20041;-86
2021/09/30 03:31:02;;;;;;;3.70;0.93;;;;;;;;;;5044410;28;20049;-84
2021/09/30 03:33:28;;;;;;;1.13;0.70;;;;;;;;;;5042628;28;20037;-84
2021/09/30 03:35:57;;;;;;;2.17;1.08;;;;;;;;;;5031085;28;20041;-84
2021/09/30 03:38:23;;;;;;;1.60;0.55;;;;;;;;;;5042871;28;20049;-83
2021/09/30 03:40:51;;;;;;;2.25;0.70;;;;;;;;;;5023360;28;20081;-84
2021/09/30 03:43:19;;;;;;;0.63;0.40;;;;;;;;;;5018955;28;20077;-83
2021/09/30 03:45:45;;;;;;;3.50;0.90;;;;;;;;;;5039041;28;20045;-83
2021/09/30 03:48:12;;;;;;;2.30;0.80;;;;;;;;;;5043697;28;20048;-84
2021/09/30 03:50:46;;;;;;;1.17;0.50;;;;;;;;;;5023582;28;20049;-83
2021/09/30 03:53:17;;;;;;;1.58;0.60;;;;;;;;;;5038756;28;20063;-83
2021/09/30 03:55:59;;;;;;;2.05;0.70;;;;;;;;;;5028591;28;20096;-84
2021/09/30 04:01:19;;;;;;;1.23;0.70;;;;;;;;;;4980486;28;20586;-84
2021/09/30 04:03:46;;;;;;;2.40;0.70;;;;;;;;;;5020983;28;20050;-85
2021/09/30 04:06:13;;;;;;;1.65;0.75;;;;;;;;;;5041692;28;20064;-85
2021/09/30 04:08:42;;;;;;;3.97;0.77;;;;;;;;;;5039145;28;20041;-84
2021/09/30 04:11:08;;;;;;;1.58;0.70;;;;;;;;;;5041675;28;20052;-85
2021/09/30 04:13:35;;;;;;;3.75;0.73;;;;;;;;;;5021661;28;20057;-84
2021/09/30 04:16:02;;;;;;;4.10;1.13;;;;;;;;;;5005608;28;20088;-84
2021/09/30 04:18:28;;;;;;;2.25;0.60;;;;;;;;;;5039366;28;20040;-83
2021/09/30 04:20:55;;;;;;;7.97;1.90;;;;;;;;;;5020943;28;20045;-83
2021/09/30 04:23:22;;;;;;;1.00;0.80;;;;;;;;;;5010534;28;20479;-84
2021/09/30 04:25:50;;;;;;;1.55;0.85;;;;;;;;;;5009034;28;20045;-84
2021/09/30 04:28:18;;;;;;;2.53;0.70;;;;;;;;;;5040683;28;20326;-84
2021/09/30 04:30:45;;;;;;;1.60;0.93;;;;;;;;;;5023319;28;20399;-85
2021/09/30 04:33:12;;;;;;;3.63;0.88;;;;;;;;;;5043280;28;20485;-84
2021/09/30 04:35:38;;;;;;;5.28;0.90;;;;;;;;;;5029266;28;20045;-83
2021/09/30 04:38:08;;;;;;;4.68;1.05;;;;;;;;;;5041288;28;20106;-84
2021/09/30 04:40:34;;;;;;;3.00;0.88;;;;;;;;;;5038806;28;20041;-84
2021/09/30 04:43:02;;;;;;;2.22;0.90;;;;;;;;;;5021165;28;20052;-84
2021/09/30 04:45:29;;;;;;;2.95;0.90;;;;;;;;;;5021903;28;20049;-85
2021/09/30 04:47:56;;;;;;;3.40;1.25;;;;;;;;;;5007672;28;20064;-84
2021/09/30 04:50:23;;;;;;;7.75;2.63;;;;;;;;;;5036886;28;20042;-84
2021/09/30 04:52:50;;;;;;;7.95;2.83;;;;;;;;;;5005005;28;20410;-86
2021/09/30 04:55:17;;;;;;;6.40;2.63;;;;;;;;;;5036017;28;20053;-84
2021/09/30 04:57:44;;;;;;;9.63;2.40;;;;;;;;;;5023778;28;20045;-84
2021/09/30 05:00:14;;;;;;;6.88;2.50;;;;;;;;;;5035342;28;20040;-85
2021/09/30 05:02:40;;;;;;;7.60;3.20;;;;;;;;;;5037314;28;20037;-84
2021/09/30 05:05:08;;;;;;;6.40;2.65;;;;;;;;;;5031483;28;20048;-83
2021/09/30 05:07:35;;;;;;;6.38;2.00;;;;;;;;;;5005529;28;20076;-84
2021/09/30 05:10:04;;;;;;;9.20;2.30;;;;;;;;;;5002900;28;20053;-85
2021/09/30 05:12:30;;;;;;;8.50;2.60;;;;;;;;;;5013208;28;20110;-84
2021/09/30 05:14:57;;;;;;;5.88;1.80;;;;;;;;;;5038668;28;20086;-84
2021/09/30 05:17:25;;;;;;;4.65;1.48;;;;;;;;;;5017663;28;20115;-85
2021/09/30 05:19:52;;;;;;;6.68;1.67;;;;;;;;;;5041324;28;20053;-83
2021/09/30 05:22:18;;;;;;;3.33;1.20;;;;;;;;;;5044515;28;20064;-85
2021/09/30 05:24:45;;;;;;;6.28;1.00;;;;;;;;;;5025343;28;20056;-84
2021/09/30 05:27:12;;;;;;;3.60;1.25;;;;;;;;;;5009288;28;20045;-83
2021/09/30 05:29:39;;;;;;;4.10;1.10;;;;;;;;;;5021946;28;20049;-83
2021/09/30 05:32:06;;;;;;;5.13;1.20;;;;;;;;;;5025778;28;20052;-84
2021/09/30 05:34:34;;;;;;;8.93;1.30;;;;;;;;;;5041902;28;20073;-82
2021/09/30 05:37:01;;;;;;;3.22;1.15;;;;;;;;;;5025624;28;20091;-83
2021/09/30 05:39:27;;;;;;;4.43;1.42;;;;;;;;;;5040550;28;20486;-84
2021/09/30 05:41:56;;;;;;;4.78;1.13;;;;;;;;;;5026349;28;20096;-84
2021/09/30 05:44:24;;;;;;;4.78;1.23;;;;;;;;;;4987137;28;20046;-83
2021/09/30 05:46:54;;;;;;;4.65;1.48;;;;;;;;;;5042232;28;20064;-84
2021/09/30 05:49:21;;;;;;;3.70;1.30;;;;;;;;;;5037139;28;20049;-84
2021/09/30 05:51:49;;;;;;;3.50;1.33;;;;;;;;;;5023793;28;20061;-84
2021/09/30 05:54:16;;;;;;;3.83;1.30;;;;;;;;;;5040999;28;20045;-84
2021/09/30 05:56:43;;;;;;;2.42;0.98;;;;;;;;;;5023232;28;20108;-83
2021/09/30 05:59:10;;;;;;;2.63;0.88;;;;;;;;;;5024772;28;20077;-84
2021/09/30 06:02:21;;;;;;;3.90;1.00;;;;;;;;;;5021881;28;20056;-84
2021/09/30 06:10:17;;;;;;;4.47;1.00;;;;;;;;;;5042464;28;20930;-84
2021/09/30 06:12:46;;;;;;;4.65;1.17;;;;;;;;;;5024532;28;20041;-83
2021/09/30 06:15:15;;;;;;;3.90;1.30;;;;;;;;;;5041108;28;20045;-83
2021/09/30 06:17:45;;;;;;;3.17;1.20;;;;;;;;;;5038904;28;20046;-84
2021/09/30 06:20:12;;;;;;;4.53;1.00;;;;;;;;;;5037365;28;20465;-83
2021/09/30 06:22:40;;;;;;;1.77;0.90;;;;;;;;;;5041190;28;20370;-84
2021/09/30 06:25:08;;;;;;;1.92;0.88;;;;;;;;;;5036511;28;20048;-82
2021/09/30 06:27:35;;;;;;;4.00;1.13;;;;;;;;;;5041853;28;20049;-83
2021/09/30 06:30:01;;;;;;;1.60;1.00;;;;;;;;;;5025123;28;20042;-85
2021/09/30 06:32:28;;;;;;;1.73;0.60;;;;;;;;;;5003131;28;20088;-84
2021/09/30 06:34:54;;;;;;;21.17;3.28;;;;;;;;;;5028294;28;20037;-83
2021/09/30 06:37:21;;;;;;;4.20;1.10;;;;;;;;;;5029997;28;20046;-85
2021/09/30 06:39:49;;;;;;;6.70;1.50;;;;;;;;;;5040986;28;20049;-84
2021/09/30 06:42:15;;;;;;;3.13;0.93;;;;;;;;;;5028713;28;20053;-84
2021/09/30 06:44:42;;;;;;;2.88;1.10;;;;;;;;;;5011723;28;20049;-84
2021/09/30 06:47:09;;;;;;;2.17;0.90;;;;;;;;;;5011202;28;20080;-85
2021/09/30 06:49:35;;;;;;;2.08;1.20;;;;;;;;;;5027160;28;20552;-85
2021/09/30 06:52:02;;;;;;;3.65;1.33;;;;;;;;;;5047320;28;20049;-83
2021/09/30 06:54:29;;;;;;;3.60;1.58;;;;;;;;;;5027505;28;20049;-85
2021/09/30 06:56:57;;;;;;;3.80;1.23;;;;;;;;;;5029096;28;20049;-83
2021/09/30 06:59:32;;;;;;;2.72;1.50;;;;;;;;;;5043445;28;20449;-84
2021/09/30 07:01:59;;;;;;;3.13;1.10;;;;;;;;;;5031584;28;20046;-85
2021/09/30 07:04:26;;;;;;;3.42;1.25;;;;;;;;;;5040176;28;20049;-85
2021/09/30 07:06:52;;;;;;;4.03;1.15;;;;;;;;;;5045834;28;20782;-84
2021/09/30 07:09:19;;;;;;;1.05;0.73;;;;;;;;;;5028878;28;20080;-84
2021/09/30 07:11:46;;;;;;;2.38;1.02;;;;;;;;;;4995570;28;20522;-83
2021/09/30 07:14:14;;;;;;;1.30;0.88;;;;;;;;;;5044926;28;20498;-83
2021/09/30 07:16:41;;;;;;;2.38;0.90;;;;;;;;;;5024992;28;20045;-83
2021/09/30 07:19:08;;;;;;;2.63;1.20;;;;;;;;;;5023759;28;20076;-84
2021/09/30 07:21:34;;;;;;;4.70;0.90;;;;;;;;;;5026345;28;20050;-83
2021/09/30 07:24:01;;;;;;;1.13;0.60;;;;;;;;;;5009109;28;20049;-85
2021/09/30 07:26:28;;;;;;;2.05;0.90;;;;;;;;;;5037764;28;20196;-83
2021/09/30 07:28:55;;;;;;;3.15;0.98;;;;;;;;;;5012583;28;20084;-84
2021/09/30 07:31:22;;;;;;;3.90;0.80;;;;;;;;;;5023275;28;20041;-84
2021/09/30 07:33:49;;;;;;;2.25;0.82;;;;;;;;;;5046589;28;20041;-84
2021/09/30 07:36:17;;;;;;;3.13;1.10;;;;;;;;;;5044226;28;20049;-84
2021/09/30 07:38:43;;;;;;;3.00;0.80;;;;;;;;;;5044759;28;20065;-84
2021/09/30 07:41:10;;;;;;;4.05;1.15;;;;;;;;;;5025426;28;20148;-86
2021/09/30 07:43:37;;;;;;;2.33;0.75;;;;;;;;;;5041371;28;20038;-85
2021/09/30 07:46:04;;;;;;;1.83;0.90;;;;;;;;;;5046154;28;20438;-84
2021/09/30 07:48:32;;;;;;;2.08;0.75;;;;;;;;;;5044982;28;20053;-84
2021/09/30 07:50:58;;;;;;;4.88;0.80;;;;;;;;;;5023688;28;20073;-85
2021/09/30 07:53:25;;;;;;;1.77;0.65;;;;;;;;;;5014573;28;20069;-84
2021/09/30 07:55:53;;;;;;;3.15;0.80;;;;;;;;;;5025784;28;20075;-84
2021/09/30 07:58:19;;;;;;;2.85;0.82;;;;;;;;;;5039751;28;20076;-84
2021/09/30 08:00:46;;;;;;;3.83;0.82;;;;;;;;;;5043243;28;20049;-85
2021/09/30 08:03:13;;;;;;;1.88;0.65;;;;;;;;;;5026353;28;20068;-84
2021/09/30 08:05:41;;;;;;;1.73;0.63;;;;;;;;;;5026461;28;20100;-85
2021/09/30 08:08:10;;;;;;;1.48;0.70;;;;;;;;;;5026984;28;20064;-84
2021/09/30 08:10:38;;;;;;;5.22;1.02;;;;;;;;;;5007804;28;20056;-85
2021/09/30 08:13:05;;;;;;;2.35;0.80;;;;;;;;;;5041078;28;20045;-85
2021/09/30 08:15:31;;;;;;;3.65;0.77;;;;;;;;;;5025824;28;20041;-84
2021/09/30 08:17:58;;;;;;;3.47;0.93;;;;;;;;;;5046347;28;20045;-83
2021/09/30 08:20:25;;;;;;;3.17;0.90;;;;;;;;;;5027151;28;20522;-84
2021/09/30 08:22:54;;;;;;;3.10;1.00;;;;;;;;;;5031429;28;20064;-83
2021/09/30 08:25:21;;;;;;;2.10;0.73;;;;;;;;;;5045079;28;20109;-83
2021/09/30 08:27:48;;;;;;;3.80;0.70;;;;;;;;;;5036413;28;20095;-85
2021/09/30 08:30:14;;;;;;;2.28;0.70;;;;;;;;;;5032627;28;20088;-83
2021/09/30 08:32:42;;;;;;;1.95;0.60;;;;;;;;;;5023114;28;20088;-82
2021/09/30 08:35:10;;;;;;;2.17;0.75;;;;;;;;;;5028285;28;20041;-84
2021/09/30 08:37:37;;;;;;;2.45;0.70;;;;;;;;;;5001388;28;20132;-84
2021/09/30 08:40:07;;;;;;;5.93;1.42;;;;;;;;;;4989772;28;20326;-83
2021/09/30 08:42:33;;;;;;;2.90;0.68;;;;;;;;;;5038611;28;20041;-83
2021/09/30 08:45:00;;;;;;;2.15;0.63;;;;;;;;;;5007505;28;20561;-84
2021/09/30 08:47:27;;;;;;;2.05;0.43;;;;;;;;;;5023509;28;20040;-84
2021/09/30 08:49:54;;;;;;;2.28;0.50;;;;;;;;;;5021257;28;20494;-83
2021/09/30 08:52:20;;;;;;;1.50;0.45;;;;;;;;;;5038293;28;20049;-83
2021/09/30 08:54:47;;;;;;;1.92;0.60;;;;;;;;;;5004323;28;20137;-83
2021/09/30 08:57:15;;;;;;;2.05;0.63;;;;;;;;;;5039723;28;20490;-83
2021/09/30 08:59:42;;;;;;;1.38;0.45;;;;;;;;;;5033711;28;20045;-84
2021/09/30 09:02:10;;;;;;;2.40;0.82;;;;;;;;;;5040184;28;20087;-83
2021/09/30 09:04:37;;;;;;;1.90;0.40;;;;;;;;;;5038977;28;20068;-83
2021/09/30 09:07:06;;;;;;;4.07;0.77;;;;;;;;;;5021660;28;20128;-83
2021/09/30 09:09:33;;;;;;;3.58;0.60;;;;;;;;;;5041193;28;20044;-84
2021/09/30 09:12:05;;;;;;;2.55;0.50;;;;;;;;;;5041982;28;20057;-84
2021/09/30 09:14:35;;;;;;;1.10;0.40;;;;;;;;;;5034458;28;20445;-84
2021/09/30 09:17:04;;;;;;;1.70;0.40;;;;;;;;;;5021877;28;20061;-84
2021/09/30 09:19:37;;;;;;;2.17;1.15;;;;;;;;;;5035569;28;20442;-84
2021/09/30 09:22:05;;;;;;;6.88;0.85;;;;;;;;;;5031515;28;20057;-83
2021/09/30 09:24:32;;;;;;;2.75;0.50;;;;;;;;;;5039773;28;20045;-84
2021/09/30 09:27:00;;;;;;;1.42;0.47;;;;;;;;;;5040238;28;20052;-84
2021/09/30 09:29:30;;;;;;;2.08;0.40;;;;;;;;;;5035494;28;20099;-83
2021/09/30 09:32:04;;;;;;;2.20;0.75;;;;;;;;;;5042850;28;20073;-83
2021/09/30 09:34:33;;;;;;;3.90;0.68;;;;;;;;;;5039894;28;20050;-84
2021/09/30 09:37:19;;;;;;;3.40;0.60;;;;;;;;;;5041643;28;20107;-84
2021/09/30 09:39:47;;;;;;;1.95;0.30;;;;;;;;;;5033698;28;20071;-83
2021/09/30 09:42:15;;;;;;;2.65;0.68;;;;;;;;;;5034892;28;20054;-83
2021/09/30 09:44:56;;;;;;;4.03;1.40;;;;;;;;;;5006553;28;20483;-84
2021/09/30 09:47:26;;;;;;;2.20;0.85;;;;;;;;;;5045009;28;20041;-83
2021/09/30 09:50:13;;;;;;;2.50;0.88;;;;;;;;;;5042614;28;20049;-83
2021/09/30 09:52:48;;;;;;;3.03;0.50;;;;;;;;;;5039726;28;20049;-83
2021/09/30 09:55:16;;;;;;;2.90;0.45;;;;;;;;;;5037338;28;20044;-84
2021/09/30 09:57:58;;;;;;;1.58;0.40;;;;;;;;;;5037981;28;20041;-84
2021/09/30 10:00:25;;;;;;;1.45;0.80;;;;;;;;;;5038585;28;20072;-84
2021/09/30 10:02:53;;;;;;;3.75;0.65;;;;;;;;;;5025506;28;20072;-83
2021/09/30 10:05:20;;;;;;;1.52;0.50;;;;;;;;;;5036788;28;20057;-84
2021/09/30 10:07:48;;;;;;;2.92;0.40;;;;;;;;;;5022402;28;20050;-84
2021/09/30 10:10:15;;;;;;;2.08;0.30;;;;;;;;;;5021973;28;20464;-84
2021/09/30 10:12:45;;;;;;;2.03;0.40;;;;;;;;;;5022081;28;20521;-84
2021/09/30 10:15:12;;;;;;;0.52;0.22;;;;;;;;;;5020742;28;20064;-83
2021/09/30 10:17:39;;;;;;;2.67;0.35;;;;;;;;;;5026493;28;20046;-83
2021/09/30 10:20:09;;;;;;;1.75;0.52;;;;;;;;;;5043441;28;20056;-84
2021/09/30 10:22:36;;;;;;;1.60;0.25;;;;;;;;;;5025786;28;20091;-85
2021/09/30 10:25:03;;;;;;;1.63;0.63;;;;;;;;;;5020628;28;20144;-83
2021/09/30 10:27:30;;;;;;;1.95;0.38;;;;;;;;;;5040268;28;20056;-84
2021/09/30 10:29:58;;;;;;;0.63;0.28;;;;;;;;;;5026127;28;20056;-84
2021/09/30 10:32:25;;;;;;;1.80;0.30;;;;;;;;;;5046378;28;20045;-84
2021/09/30 10:34:59;;;;;;;1.00;0.47;;;;;;;;;;5043894;28;20049;-85
2021/09/30 10:37:29;;;;;;;2.08;0.30;;;;;;;;;;5035788;28;20061;-83
2021/09/30 10:40:14;;;;;;;3.63;0.40;;;;;;;;;;5047244;28;20604;-82
2021/09/30 10:42:44;;;;;;;2.30;0.38;;;;;;;;;;5046581;28;20045;-85
2021/09/30 10:45:13;;;;;;;3.40;0.60;;;;;;;;;;5041472;28;20050;-83
2021/09/30 10:47:40;;;;;;;5.40;0.52;;;;;;;;;;5043486;28;20045;-85
2021/09/30 10:50:07;;;;;;;1.45;0.35;;;;;;;;;;5018608;28;20049;-84
2021/09/30 10:52:36;;;;;;;1.58;0.30;;;;;;;;;;5044020;28;20046;-83
2021/09/30 10:55:28;;;;;;;2.10;0.65;;;;;;;;;;5026311;28;20128;-84
2021/09/30 10:57:55;;;;;;;2.60;0.47;;;;;;;;;;5045657;28;20042;-85
2021/09/30 11:00:52;;;;;;;1.65;0.40;;;;;;;;;;5024520;28;20097;-85
2021/09/30 11:03:26;;;;;;;3.90;1.00;;;;;;;;;;5022618;28;20045;-85
2021/09/30 11:06:21;;;;;;;3.47;0.50;;;;;;;;;;5043498;28;20532;-84
2021/09/30 11:09:09;;;;;;;1.98;0.45;;;;;;;;;;5022668;28;20057;-85
2021/09/30 11:11:36;;;;;;;1.70;0.30;;;;;;;;;;5045577;28;20431;-84
2021/09/30 11:14:23;;;;;;;1.95;0.50;;;;;;;;;;5046971;28;20101;-84
2021/09/30 11:16:52;;;;;;;0.47;0.40;;;;;;;;;;5039095;28;20053;-85
2021/09/30 11:19:38;;;;;;;1.05;0.38;;;;;;;;;;5045091;28;20045;-86
2021/09/30 11:22:06;;;;;;;1.45;0.40;;;;;;;;;;5046741;28;20488;-84
2021/09/30 11:24:36;;;;;;;1.00;0.40;;;;;;;;;;5047636;28;20046;-85
2021/09/30 11:27:14;;;;;;;2.30;0.40;;;;;;;;;;5046524;28;20056;-86
2021/09/30 11:29:41;;;;;;;1.15;0.30;;;;;;;;;;5044604;28;20060;-85
2021/09/30 11:32:29;;;;;;;0.90;0.35;;;;;;;;;;5026275;28;20053;-84
2021/09/30 11:35:03;;;;;;;1.65;0.40;;;;;;;;;;5029843;28;20056;-85
2021/09/30 11:37:40;;;;;;;2.15;0.40;;;;;;;;;;5044087;28;20045;-85
2021/09/30 11:40:12;;;;;;;1.92;0.50;;;;;;;;;;5040147;28;20099;-85
2021/09/30 11:42:40;;;;;;;2.72;0.45;;;;;;;;;;5042364;28;20095;-85
2021/09/30 11:45:10;;;;;;;1.75;0.32;;;;;;;;;;5042642;28;20041;-85
2021/09/30 11:47:38;;;;;;;1.25;0.38;;;;;;;;;;5043642;28;20088;-85
2021/09/30 11:50:06;;;;;;;1.75;0.35;;;;;;;;;;5048827;28;20059;-85
2021/09/30 11:52:33;;;;;;;0.77;0.30;;;;;;;;;;5026728;28;20046;-84
2021/09/30 11:55:13;;;;;;;1.05;0.35;;;;;;;;;;5046407;28;20489;-85
2021/09/30 11:57:40;;;;;;;1.58;0.50;;;;;;;;;;5025904;28;20053;-86
2021/09/30 12:00:11;;;;;;;3.30;0.60;;;;;;;;;;5040844;28;20426;-84
2021/09/30 12:02:37;;;;;;;1.52;0.20;;;;;;;;;;5044272;28;20049;-85
2021/09/30 12:05:05;;;;;;;0.60;0.30;;;;;;;;;;5042899;28;20049;-84
2021/09/30 12:07:32;;;;;;;1.00;0.22;;;;;;;;;;5027959;28;20123;-85
2021/09/30 12:10:00;;;;;;;1.80;0.63;;;;;;;;;;5028074;28;20073;-84
2021/09/30 12:12:30;;;;;;;1.50;0.30;;;;;;;;;;5044385;28;20441;-85
2021/09/30 12:14:58;;;;;;;1.75;0.40;;;;;;;;;;5028339;28;20099;-84
2021/09/30 12:17:29;;;;;;;1.95;0.43;;;;;;;;;;5044213;28;20052;-84
2021/09/30 12:19:56;;;;;;;1.80;0.40;;;;;;;;;;5049274;28;20405;-84
2021/09/30 12:22:25;;;;;;;10.02;1.20;;;;;;;;;;5024755;28;20490;-86
2021/09/30 12:24:54;;;;;;;2.60;0.47;;;;;;;;;;5044674;28;20053;-84
2021/09/30 12:27:23;;;;;;;2.17;0.47;;;;;;;;;;5038730;28;20037;-85
2021/09/30 12:29:54;;;;;;;0.82;0.30;;;;;;;;;;5024290;28;20042;-85
2021/09/30 12:32:26;;;;;;;1.92;0.40;;;;;;;;;;5038887;28;20057;-85
2021/09/30 12:34:56;;;;;;;2.83;0.70;;;;;;;;;;5039444;28;20124;-84
2021/09/30 12:37:27;;;;;;;1.65;0.47;;;;;;;;;;5039081;28;20041;-85
2021/09/30 12:40:02;;;;;;;2.88;0.50;;;;;;;;;;5021307;28;20071;-84
2021/09/30 12:42:29;;;;;;;1.92;0.30;;;;;;;;;;5039095;28;20071;-84
2021/09/30 12:44:57;;;;;;;2.97;0.45;;;;;;;;;;5038325;28;20079;-85
2021/09/30 12:47:32;;;;;;;2.40;0.40;;;;;;;;;;5039599;28;20049;-85
2021/09/30 12:50:05;;;;;;;1.33;0.30;;;;;;;;;;5027657;28;20053;-84
2021/09/30 12:52:32;;;;;;;2.30;0.45;;;;;;;;;;5041759;28;20083;-86
2021/09/30 12:54:59;;;;;;;2.00;0.40;;;;;;;;;;5026315;28;20478;-84
2021/09/30 12:57:33;;;;;;;1.65;0.63;;;;;;;;;;5042889;28;20466;-85
2021/09/30 13:00:11;;;;;;;4.07;0.47;;;;;;;;;;5045140;28;20069;-84
2021/09/30 13:02:38;;;;;;;1.50;0.50;;;;;;;;;;5024773;28;20091;-86
2021/09/30 13:05:05;;;;;;;1.23;0.40;;;;;;;;;;5026679;28;20056;-84
2021/09/30 13:07:46;;;;;;;4.03;0.65;;;;;;;;;;5024464;28;20061;-85
2021/09/30 13:10:14;;;;;;;0.85;0.40;;;;;;;;;;5034339;28;20103;-85
2021/09/30 13:13:01;;;;;;;1.17;0.30;;;;;;;;;;5023173;28;20049;-85
2021/09/30 13:15:37;;;;;;;1.10;0.50;;;;;;;;;;5040233;28;20410;-85
2021/09/30 13:18:06;;;;;;;2.03;0.40;;;;;;;;;;5041949;28;20037;-84
2021/09/30 13:20:32;;;;;;;1.63;0.43;;;;;;;;;;5040596;28;20042;-84
2021/09/30 13:22:59;;;;;;;0.47;0.20;;;;;;;;;;5024488;28;20253;-84
2021/09/30 13:25:26;;;;;;;0.35;0.15;;;;;;;;;;5019149;28;20402;-85
2021/09/30 13:27:53;;;;;;;1.23;0.40;;;;;;;;;;5043133;28;20077;-85
2021/09/30 13:30:21;;;;;;;1.38;0.52;;;;;;;;;;5004664;28;20076;-84
2021/09/30 13:32:51;;;;;;;10.57;1.40;;;;;;;;;;5037823;28;20511;-84
2021/09/30 13:35:18;;;;;;;0.47;0.15;;;;;;;;;;5041808;28;20045;-85
2021/09/30 13:37:45;;;;;;;1.23;0.40;;;;;;;;;;5024698;28;20060;-85
2021/09/30 13:40:13;;;;;;;1.90;0.35;;;;;;;;;;5043193;28;20048;-85
2021/09/30 13:42:40;;;;;;;3.10;0.47;;;;;;;;;;5040074;28;20049;-85
2021/09/30 13:45:09;;;;;;;2.40;0.30;;;;;;;;;;5022066;28;20080;-84
2021/09/30 13:47:35;;;;;;;0.47;0.22;;;;;;;;;;5040441;28;20072;-84
2021/09/30 13:50:06;;;;;;;3.05;0.80;;;;;;;;;;5040424;28;20080;-85
2021/09/30 13:52:32;;;;;;;1.10;0.45;;;;;;;;;;5023210;28;20104;-85
2021/09/30 13:54:59;;;;;;;1.08;0.40;;;;;;;;;;5025548;28;20419;-86
2021/09/30 13:57:25;;;;;;;2.10;0.68;;;;;;;;;;5042062;28;20041;-84
2021/09/30 13:59:52;;;;;;;1.65;0.50;;;;;;;;;;5027845;28;20073;-85
2021/09/30 14:02:19;;;;;;;1.38;0.32;;;;;;;;;;5024306;28;20048;-85
2021/09/30 14:04:46;;;;;;;7.25;1.63;;;;;;;;;;5007182;28;20088;-83
2021/09/30 14:07:14;;;;;;;13.73;1.33;;;;;;;;;;5022231;28;20046;-83
2021/09/30 14:09:41;;;;;;;12.35;1.50;;;;;;;;;;5024431;28;20072;-85
2021/09/30 14:12:08;;;;;;;13.60;1.75;;;;;;;;;;4992365;28;20037;-84
2021/09/30 14:14:35;;;;;;;4.15;0.90;;;;;;;;;;5007661;28;20541;-84
2021/09/30 14:17:02;;;;;;;1.25;0.30;;;;;;;;;;5039305;28;20054;-85
2021/09/30 14:19:29;;;;;;;5.93;0.70;;;;;;;;;;5023512;28;20049;-84
2021/09/30 14:21:57;;;;;;;19.70;1.35;;;;;;;;;;5046231;28;20045;-85
2021/09/30 14:24:26;;;;;;;3.22;0.47;;;;;;;;;;5024468;28;20041;-83
2021/09/30 14:26:53;;;;;;;4.88;0.98;;;;;;;;;;5025365;28;20092;-85
2021/09/30 14:29:20;;;;;;;1.42;0.28;;;;;;;;;;5022697;28;20068;-84
2021/09/30 14:31:46;;;;;;;8.00;0.70;;;;;;;;;;5039445;28;20058;-85
2021/09/30 14:34:13;;;;;;;5.32;0.68;;;;;;;;;;5040180;28;20053;-84
2021/09/30 14:36:40;;;;;;;5.53;0.52;;;;;;;;;;5020908;28;20080;-85
2021/09/30 14:39:07;;;;;;;1.65;0.45;;;;;;;;;;5020164;28;20053;-85
2021/09/30 14:41:35;;;;;;;3.22;0.50;;;;;;;;;;5037351;28;20073;-85
2021/09/30 14:44:03;;;;;;;0.65;0.30;;;;;;;;;;5018615;28;20084;-85
2021/09/30 14:46:29;;;;;;;2.35;0.30;;;;;;;;;;5040938;28;20041;-84
2021/09/30 14:48:56;;;;;;;2.35;0.40;;;;;;;;;;5024976;28;20128;-84
2021/09/30 14:51:23;;;;;;;1.13;0.30;;;;;;;;;;5007100;28;20509;-84
2021/09/30 14:53:50;;;;;;;1.42;0.40;;;;;;;;;;5026841;28;20045;-84
2021/09/30 14:56:17;;;;;;;1.92;0.40;;;;;;;;;;5021059;28;20478;-84
2021/09/30 14:58:45;;;;;;;2.13;0.45;;;;;;;;;;5042359;28;20045;-84
2021/09/30 15:01:12;;;;;;;1.38;0.40;;;;;;;;;;5042422;28;20061;-85
2021/09/30 15:03:38;;;;;;;3.60;0.68;;;;;;;;;;5038574;28;20045;-84
2021/09/30 15:06:11;;;;;;;1.38;0.40;;;;;;;;;;5012257;28;20049;-83
2021/09/30 15:08:37;;;;;;;6.10;0.70;;;;;;;;;;5026700;28;20046;-84
2021/09/30 15:11:04;;;;;;;5.28;0.63;;;;;;;;;;5024530;28;20045;-84
2021/09/30 15:13:31;;;;;;;0.60;0.30;;;;;;;;;;5025862;28;20041;-83
2021/09/30 15:16:01;;;;;;;4.70;0.75;;;;;;;;;;5007635;28;20045;-84
2021/09/30 15:18:39;;;;;;;3.92;1.00;;;;;;;;;;5042408;28;20038;-84
2021/09/30 15:21:24;;;;;;;1.70;0.43;;;;;;;;;;5045822;28;20048;-85
2021/09/30 15:23:54;;;;;;;3.43;0.93;;;;;;;;;;5022200;28;20049;-84
2021/09/30 15:26:21;;;;;;;4.72;0.98;;;;;;;;;;5040873;28;20311;-84
2021/09/30 15:28:48;;;;;;;0.85;0.25;;;;;;;;;;5044304;28;20045;-84
2021/09/30 15:31:17;;;;;;;3.15;0.50;;;;;;;;;;5044816;28;20047;-85
2021/09/30 15:33:43;;;;;;;1.45;0.43;;;;;;;;;;5035408;28;20042;-83
2021/09/30 15:36:10;;;;;;;1.88;0.52;;;;;;;;;;5045150;28;20045;-85
2021/09/30 15:38:38;;;;;;;2.47;0.47;;;;;;;;;;5020274;28;20042;-84
2021/09/30 15:41:05;;;;;;;1.67;0.35;;;;;;;;;;5044844;28;20068;-84
2021/09/30 15:43:32;;;;;;;1.35;0.40;;;;;;;;;;5006106;28;20056;-84
2021/09/30 15:46:00;;;;;;;1.63;0.32;;;;;;;;;;5024691;28;20494;-84
2021/09/30 15:48:28;;;;;;;1.67;0.40;;;;;;;;;;5036916;28;20041;-84
2021/09/30 15:50:57;;;;;;;4.50;0.50;;;;;;;;;;5012608;28;20109;-84
2021/09/30 15:53:23;;;;;;;0.93;0.40;;;;;;;;;;5043642;28;20049;-84
2021/09/30 15:55:51;;;;;;;0.43;0.20;;;;;;;;;;5037953;28;20053;-84
2021/09/30 15:58:18;;;;;;;1.95;0.70;;;;;;;;;;5040818;28;20121;-85
2021/09/30 16:00:45;;;;;;;1.98;0.68;;;;;;;;;;5042790;28;20132;-84
2021/09/30 16:03:12;;;;;;;1.75;0.80;;;;;;;;;;5043610;28;20120;-84
2021/09/30 16:05:40;;;;;;;3.17;0.45;;;;;;;;;;5023016;28;20083;-84
2021/09/30 16:08:07;;;;;;;3.58;0.50;;;;;;;;;;5040006;28;20047;-84
2021/09/30 16:10:34;;;;;;;2.03;0.50;;;;;;;;;;5041929;28;20072;-84
2021/09/30 16:13:01;;;;;;;1.67;0.60;;;;;;;;;;5011160;28;20503;-84
2021/09/30 16:15:28;;;;;;;1.20;0.43;;;;;;;;;;5038431;28;20041;-84
2021/09/30 16:17:54;;;;;;;1.90;0.47;;;;;;;;;;5045951;28;20119;-85
2021/09/30 16:20:21;;;;;;;1.35;0.50;;;;;;;;;;5036882;28;20046;-84
2021/09/30 16:22:50;;;;;;;0.55;0.30;;;;;;;;;;5008335;28;20080;-84
2021/09/30 16:25:19;;;;;;;0.80;0.30;;;;;;;;;;5018607;28;20045;-84
2021/09/30 16:27:46;;;;;;;1.67;0.30;;;;;;;;;;5023880;28;20053;-84
2021/09/30 16:30:13;;;;;;;1.42;1.13;;;;;;;;;;5023658;28;20552;-85
2021/09/30 16:32:40;;;;;;;4.57;0.75;;;;;;;;;;4985932;28;20073;-84
2021/09/30 16:35:08;;;;;;;1.13;0.50;;;;;;;;;;5001206;28;20045;-85
2021/09/30 16:37:34;;;;;;;1.33;0.52;;;;;;;;;;5037432;28;20399;-85
2021/09/30 16:40:05;;;;;;;3.58;0.68;;;;;;;;;;5025885;28;20052;-84
2021/09/30 16:42:31;;;;;;;3.28;0.70;;;;;;;;;;5019135;28;20053;-84
2021/09/30 16:45:01;;;;;;;8.07;0.60;;;;;;;;;;5021161;28;20088;-84
2021/09/30 16:47:28;;;;;;;2.95;0.65;;;;;;;;;;5021548;28;20049;-84
2021/09/30 16:49:55;;;;;;;4.35;0.88;;;;;;;;;;4994575;28;20108;-84
2021/09/30 16:52:22;;;;;;;4.93;1.45;;;;;;;;;;5023402;28;20042;-84
2021/09/30 16:54:48;;;;;;;8.98;0.73;;;;;;;;;;5009783;28;20053;-84
2021/09/30 16:57:16;;;;;;;7.35;0.90;;;;;;;;;;5045650;28;20052;-85
2021/09/30 16:59:43;;;;;;;2.17;0.70;;;;;;;;;;5011978;28;20053;-85
2021/09/30 17:02:10;;;;;;;3.55;0.52;;;;;;;;;;5022042;28;20042;-84
2021/09/30 17:04:37;;;;;;;4.80;0.70;;;;;;;;;;5041412;28;20045;-84
2021/09/30 17:07:04;;;;;;;5.72;1.35;;;;;;;;;;5046857;28;20044;-84
2021/09/30 17:09:31;;;;;;;3.65;0.63;;;;;;;;;;5023990;28;20049;-83
2021/09/30 17:11:57;;;;;;;2.35;0.63;;;;;;;;;;5005072;28;20517;-84
2021/09/30 17:14:27;;;;;;;1.45;0.52;;;;;;;;;;5038425;28;20068;-84
2021/09/30 17:16:54;;;;;;;3.28;0.52;;;;;;;;;;5020826;28;20081;-84
2021/09/30 17:19:20;;;;;;;1.77;0.40;;;;;;;;;;5005444;28;20045;-83
2021/09/30 17:21:47;;;;;;;1.67;0.43;;;;;;;;;;5005296;28;20072;-84
2021/09/30 17:24:18;;;;;;;2.92;0.63;;;;;;;;;;5024639;28;20049;-84